createdAt,value
2019-02-23T00:01:49.506Z,4.80
2019-02-23T00:04:20.888Z,5.97
2019-02-23T00:06:50.640Z,4.97
2019-02-23T00:09:20.258Z,3.65
2019-02-23T00:11:52.706Z,4.92
2019-02-23T00:14:22.962Z,3.80
2019-02-23T00:16:54.112Z,5.65
2019-02-23T00:19:26.468Z,7.55
2019-02-23T00:21:59.557Z,4.45
2019-02-23T00:24:29.206Z,4.92
2019-02-23T00:26:58.821Z,4.22
2019-02-23T00:29:28.524Z,3.85
2019-02-23T00:32:00.922Z,3.42
2019-02-23T00:34:46.042Z,3.30
2019-02-23T00:37:15.895Z,3.70
2019-02-23T00:39:45.528Z,3.58
2019-02-23T00:42:15.137Z,2.83
2019-02-23T00:44:44.817Z,3.17
2019-02-23T00:47:15.452Z,4.42
2019-02-23T00:49:45.085Z,5.05
2019-02-23T00:52:14.688Z,5.15
2019-02-23T00:54:45.354Z,4.62
2019-02-23T00:57:15.054Z,3.45
2019-02-23T00:59:44.689Z,4.67
2019-02-23T01:02:14.285Z,4.80
2019-02-23T01:04:43.978Z,4.95
2019-02-23T01:07:13.704Z,5.20
2019-02-23T01:09:43.346Z,4.92
2019-02-23T01:12:16.132Z,5.40
2019-02-23T01:14:48.586Z,3.87
2019-02-23T01:17:18.192Z,4.58
2019-02-23T01:19:48.212Z,3.83
2019-02-23T01:22:17.973Z,3.77
2019-02-23T01:24:52.050Z,4.70
2019-02-23T01:27:21.741Z,3.00
2019-02-23T01:29:51.482Z,4.78
2019-02-23T01:32:23.782Z,3.87
2019-02-23T01:34:53.406Z,3.92
2019-02-23T01:37:23.171Z,4.45
2019-02-23T01:39:55.900Z,3.80
2019-02-23T01:42:25.589Z,6.30
2019-02-23T01:44:55.264Z,4.20
2019-02-23T01:47:24.982Z,5.10
2019-02-23T01:49:58.955Z,6.55
2019-02-23T01:52:26.160Z,5.12
2019-02-23T01:54:56.731Z,4.22
2019-02-23T01:57:26.355Z,3.42
2019-02-23T01:59:55.966Z,5.40
2019-02-23T02:02:27.112Z,3.83
2019-02-23T02:04:59.590Z,5.87
2019-02-23T02:07:29.213Z,4.40
2019-02-23T02:09:58.829Z,4.45
2019-02-23T02:12:28.698Z,4.10
2019-02-23T02:15:00.756Z,3.37
2019-02-23T02:17:32.006Z,4.17
2019-02-23T02:20:11.102Z,5.00
2019-02-23T02:22:36.993Z,3.87
2019-02-23T02:25:07.110Z,3.80
2019-02-23T02:27:36.803Z,3.20
2019-02-23T02:30:07.320Z,3.70
2019-02-23T02:32:36.927Z,3.10
2019-02-23T02:35:06.846Z,5.20
2019-02-23T02:37:36.541Z,6.08
2019-02-23T02:40:08.093Z,4.55
2019-02-23T02:42:37.877Z,4.15
2019-02-23T02:45:09.886Z,6.08
2019-02-23T02:47:40.960Z,3.37
2019-02-23T02:50:23.285Z,4.22
2019-02-23T02:52:42.427Z,3.58
2019-02-23T02:55:12.136Z,5.05
2019-02-23T02:57:42.812Z,5.58
2019-02-23T03:00:13.282Z,3.85
2019-02-23T03:02:43.158Z,6.05
2019-02-23T03:05:14.708Z,5.22
2019-02-23T03:07:44.325Z,4.33
2019-02-23T03:10:14.064Z,4.95
2019-02-23T03:12:43.676Z,4.22
2019-02-23T03:15:13.381Z,2.77
2019-02-23T03:17:42.987Z,3.50
2019-02-23T03:20:12.706Z,4.10
2019-02-23T03:22:42.403Z,5.15
2019-02-23T03:25:12.094Z,2.87
2019-02-23T03:27:41.724Z,4.50
2019-02-23T03:30:11.769Z,3.80
2019-02-23T03:32:42.651Z,3.45
2019-02-23T03:35:12.238Z,4.00
2019-02-23T03:37:41.868Z,5.10
2019-02-23T03:40:11.570Z,3.42
2019-02-23T03:42:41.187Z,4.67
2019-02-23T03:45:12.561Z,4.25
2019-02-23T03:47:42.174Z,4.00
2019-02-23T03:50:14.790Z,4.30
2019-02-23T03:52:46.063Z,5.30
2019-02-23T03:55:15.694Z,4.58
2019-02-23T03:57:45.301Z,3.80
2019-02-23T04:00:14.998Z,3.22
2019-02-23T04:02:44.600Z,4.05
2019-02-23T04:05:14.225Z,5.28
2019-02-23T04:07:43.838Z,3.85
2019-02-23T04:10:15.329Z,4.30
2019-02-23T04:12:46.366Z,4.33
2019-02-23T04:15:17.595Z,3.75
2019-02-23T04:17:47.234Z,4.42
2019-02-23T04:20:18.912Z,4.37
2019-02-23T04:22:51.221Z,4.20
2019-02-23T04:25:20.829Z,3.85
2019-02-23T04:27:53.401Z,4.08
2019-02-23T04:30:23.017Z,4.85
2019-02-23T04:32:52.641Z,3.35
2019-02-23T04:35:23.103Z,4.45
2019-02-23T04:37:52.736Z,5.33
2019-02-23T04:40:22.336Z,4.87
2019-02-23T04:42:51.945Z,4.95
2019-02-23T04:45:21.637Z,6.75
2019-02-23T04:47:51.309Z,2.95
2019-02-23T04:50:20.913Z,4.03
2019-02-23T04:52:50.542Z,4.67
2019-02-23T04:55:21.423Z,4.37
2019-02-23T04:57:55.642Z,4.25
2019-02-23T05:00:30.742Z,5.37
2019-02-23T05:03:00.347Z,4.87
2019-02-23T05:05:30.138Z,4.20
2019-02-23T05:07:59.771Z,4.95
2019-02-23T05:10:29.723Z,3.52
2019-02-23T05:13:01.879Z,4.40
2019-02-23T05:15:31.506Z,4.05
2019-02-23T05:18:01.132Z,2.87
2019-02-23T05:20:33.665Z,3.65
2019-02-23T05:23:04.900Z,3.37
2019-02-23T05:25:34.553Z,4.53
2019-02-23T05:28:04.334Z,4.53
2019-02-23T05:30:33.957Z,7.28
2019-02-23T05:33:05.742Z,5.33
2019-02-23T05:35:37.871Z,3.45
2019-02-23T05:38:07.497Z,3.50
2019-02-23T05:40:37.132Z,3.98
2019-02-23T05:43:11.481Z,4.62
2019-02-23T05:45:41.140Z,4.97
2019-02-23T05:48:10.744Z,5.12
2019-02-23T05:50:40.368Z,3.75
2019-02-23T05:53:09.975Z,5.65
2019-02-23T05:55:43.002Z,4.97
2019-02-23T05:58:17.627Z,5.15
2019-02-23T06:00:47.243Z,5.08
2019-02-23T06:03:16.855Z,4.95
2019-02-23T06:05:46.474Z,3.98
2019-02-23T06:08:16.089Z,4.67
2019-02-23T06:10:45.885Z,4.03
2019-02-23T06:13:15.503Z,2.58
2019-02-23T06:15:45.115Z,3.98
2019-02-23T06:18:14.736Z,2.95
2019-02-23T06:20:44.349Z,4.08
2019-02-23T06:23:16.568Z,3.10
2019-02-23T06:25:48.540Z,5.10
2019-02-23T06:28:18.145Z,4.42
2019-02-23T06:30:50.498Z,5.50
2019-02-23T06:33:20.110Z,4.65
2019-02-23T06:35:51.376Z,4.55
2019-02-23T06:38:20.998Z,3.83
2019-02-23T06:40:51.687Z,6.42
2019-02-23T06:43:21.303Z,5.70
2019-02-23T06:45:50.935Z,4.95
2019-02-23T06:48:20.557Z,4.85
2019-02-23T06:50:54.883Z,4.35
2019-02-23T06:53:27.882Z,4.75
2019-02-23T06:55:57.503Z,5.78
2019-02-23T06:58:27.122Z,3.72
2019-02-23T07:00:56.742Z,4.60
2019-02-23T07:03:26.344Z,6.08
2019-02-23T07:05:57.572Z,5.10
2019-02-23T07:08:27.186Z,4.10
2019-02-23T07:10:56.996Z,3.77
2019-02-23T07:13:26.599Z,4.60
2019-02-23T07:15:56.209Z,4.05
2019-02-23T07:18:25.839Z,4.62
2019-02-23T07:20:55.466Z,6.25
2019-02-23T07:23:25.090Z,4.60
2019-02-23T07:25:56.924Z,4.65
2019-02-23T07:28:26.595Z,6.15
2019-02-23T07:30:56.193Z,6.08
2019-02-23T07:33:32.857Z,3.55
2019-02-23T07:35:57.146Z,4.55
2019-02-23T07:38:29.781Z,4.90
2019-02-23T07:40:59.418Z,5.40
2019-02-23T07:43:29.022Z,4.03
2019-02-23T07:45:58.647Z,5.45
2019-02-23T07:48:30.331Z,5.33
2019-02-23T07:50:59.963Z,3.10
2019-02-23T07:53:29.568Z,3.75
2019-02-23T07:55:59.276Z,4.28
2019-02-23T07:58:28.904Z,4.15
2019-02-23T08:00:58.509Z,5.15
2019-02-23T08:03:28.194Z,4.25
2019-02-23T08:05:57.887Z,5.03
2019-02-23T08:08:27.577Z,3.55
2019-02-23T08:10:57.195Z,3.67
2019-02-23T08:13:27.968Z,3.55
2019-02-23T08:15:57.574Z,3.47
2019-02-23T08:18:27.186Z,4.37
2019-02-23T08:21:00.821Z,4.17
2019-02-23T08:23:30.478Z,5.78
2019-02-23T08:26:01.720Z,3.90
2019-02-23T08:28:31.415Z,5.53
2019-02-23T08:31:02.140Z,3.40
2019-02-23T08:33:31.766Z,4.05
2019-02-23T08:36:01.438Z,4.83
2019-02-23T08:38:31.154Z,5.37
2019-02-23T08:41:03.728Z,3.72
2019-02-23T08:43:34.963Z,4.53
2019-02-23T08:46:04.584Z,3.75
2019-02-23T08:48:35.562Z,5.15
2019-02-23T08:51:08.165Z,5.83
2019-02-23T08:53:37.808Z,4.10
2019-02-23T08:56:07.430Z,4.20
2019-02-23T08:58:42.334Z,3.98
2019-02-23T09:01:12.130Z,5.25
2019-02-23T09:03:41.795Z,2.95
2019-02-23T09:06:11.415Z,2.95
2019-02-23T09:08:41.030Z,3.02
2019-02-23T09:11:11.237Z,2.65
2019-02-23T09:13:41.001Z,3.65
2019-02-23T09:16:11.047Z,2.58
2019-02-23T09:18:41.686Z,3.40
2019-02-23T09:21:11.323Z,3.40
2019-02-23T09:23:42.568Z,2.70
2019-02-23T09:26:13.615Z,4.05
2019-02-23T09:28:43.280Z,3.60
2019-02-23T09:31:12.901Z,3.10
2019-02-23T09:33:42.540Z,3.40
2019-02-23T09:36:12.340Z,2.22
2019-02-23T09:38:41.971Z,3.60
2019-02-23T09:41:11.609Z,2.83
2019-02-23T09:43:41.226Z,2.22
2019-02-23T09:46:10.986Z,4.12
2019-02-23T09:48:40.600Z,2.27
2019-02-23T09:51:12.574Z,2.80
2019-02-23T09:53:44.184Z,1.50
2019-02-23T09:56:13.804Z,3.58
2019-02-23T09:58:43.453Z,1.98
2019-02-23T10:01:16.906Z,2.30
2019-02-23T10:03:51.124Z,3.05
2019-02-23T10:06:22.234Z,1.82
2019-02-23T10:08:51.887Z,2.62
2019-02-23T10:11:21.573Z,1.57
2019-02-23T10:13:54.258Z,2.65
2019-02-23T10:16:26.613Z,2.98
2019-02-23T10:18:56.297Z,3.08
2019-02-23T10:21:26.050Z,3.72
2019-02-23T10:23:55.662Z,3.05
2019-02-23T10:26:27.980Z,2.22
2019-02-23T10:28:59.228Z,2.27
2019-02-23T10:31:29.009Z,3.20
2019-02-23T10:33:58.696Z,2.70
2019-02-23T10:36:28.376Z,2.47
2019-02-23T10:38:57.991Z,2.02
2019-02-23T10:41:31.094Z,3.00
2019-02-23T10:44:03.670Z,2.37
2019-02-23T10:46:33.293Z,2.92
2019-02-23T10:49:04.330Z,2.85
2019-02-23T10:51:34.131Z,2.75
2019-02-23T10:54:03.856Z,2.60
2019-02-23T10:56:33.497Z,1.98
2019-02-23T10:59:03.218Z,2.80
2019-02-23T11:01:32.885Z,2.65
2019-02-23T11:04:10.994Z,1.90
2019-02-23T11:06:40.874Z,3.27
2019-02-23T11:09:16.366Z,2.83
2019-02-23T11:11:48.392Z,2.42
2019-02-23T11:14:19.177Z,2.00
2019-02-23T11:16:49.860Z,2.10
2019-02-23T11:19:19.550Z,2.10
2019-02-23T11:21:49.287Z,2.35
2019-02-23T11:24:20.508Z,2.87
2019-02-23T11:26:50.126Z,2.33
2019-02-23T11:29:21.167Z,2.37
2019-02-23T11:31:50.802Z,1.65
2019-02-23T11:34:20.506Z,2.52
2019-02-23T11:36:52.695Z,2.70
2019-02-23T11:39:22.320Z,2.60
2019-02-23T11:41:51.943Z,2.17
2019-02-23T11:44:21.575Z,2.37
2019-02-23T11:46:59.773Z,2.12
2019-02-23T11:49:22.508Z,2.62
2019-02-23T11:51:53.960Z,1.40
2019-02-23T11:54:23.647Z,1.67
2019-02-23T11:56:53.260Z,2.35
2019-02-23T11:59:27.555Z,1.92
2019-02-23T12:01:59.576Z,3.55
2019-02-23T12:04:29.218Z,2.22
2019-02-23T12:06:58.937Z,2.02
2019-02-23T12:09:28.676Z,2.25
2019-02-23T12:11:58.364Z,2.10
2019-02-23T12:14:28.000Z,2.15
2019-02-23T12:16:59.708Z,1.85
2019-02-23T12:19:29.352Z,1.75
2019-02-23T12:21:59.098Z,2.52
2019-02-23T12:24:28.696Z,2.85
2019-02-23T12:26:58.406Z,2.62
2019-02-23T12:29:29.010Z,1.40
2019-02-23T12:31:58.719Z,1.65
2019-02-23T12:34:29.562Z,2.58
2019-02-23T12:37:03.476Z,2.17
2019-02-23T12:39:33.155Z,2.10
2019-02-23T12:42:02.806Z,5.62
2019-02-23T12:44:35.430Z,7.17
2019-02-23T12:47:05.432Z,3.72
2019-02-23T12:49:35.051Z,2.80
2019-02-23T12:52:05.926Z,2.72
2019-02-23T12:54:39.055Z,2.02
2019-02-23T12:57:08.686Z,1.90
2019-02-23T12:59:38.300Z,2.42
2019-02-23T13:02:07.943Z,2.27
2019-02-23T13:04:37.790Z,2.25
2019-02-23T13:07:07.436Z,2.30
2019-02-23T13:09:40.949Z,3.22
2019-02-23T13:12:18.431Z,2.22
2019-02-23T13:15:01.721Z,4.10
2019-02-23T13:17:54.362Z,2.83
2019-02-23T13:20:44.874Z,1.72
2019-02-23T13:23:58.429Z,2.08
2019-02-23T13:26:48.503Z,2.20
2019-02-23T13:29:59.994Z,2.30
2019-02-23T13:32:59.792Z,1.90
2019-02-23T13:36:05.728Z,2.20
2019-02-23T13:39:09.450Z,1.80
2019-02-23T13:42:02.714Z,2.33
2019-02-23T13:44:47.677Z,2.33
2019-02-23T13:47:59.262Z,2.05
2019-02-23T13:50:51.952Z,2.45
2019-02-23T13:53:34.228Z,2.10
2019-02-23T13:56:40.669Z,2.27
2019-02-23T13:59:24.617Z,1.20
2019-02-23T14:02:31.714Z,1.77
2019-02-23T14:05:23.795Z,2.75
2019-02-23T14:08:52.644Z,1.92
2019-02-23T14:12:10.074Z,2.45
2019-02-23T14:14:55.160Z,1.62
2019-02-23T14:17:56.439Z,2.50
2019-02-23T14:21:25.826Z,1.75
2019-02-23T14:24:19.577Z,1.75
2019-02-23T14:27:25.990Z,2.15
2019-02-23T14:30:27.994Z,1.70
2019-02-23T14:33:45.529Z,1.67
2019-02-23T14:36:34.114Z,1.72
2019-02-23T14:39:44.462Z,1.70
2019-02-23T14:42:51.488Z,2.08
2019-02-23T14:45:51.226Z,2.30
2019-02-23T14:48:49.617Z,1.90
2019-02-23T14:51:43.818Z,2.58
2019-02-23T14:54:28.085Z,1.55
2019-02-23T14:57:09.853Z,1.87
2019-02-23T14:59:59.476Z,2.58
2019-02-23T15:03:07.363Z,1.87
2019-02-23T15:05:59.395Z,1.75
2019-02-23T15:08:43.640Z,2.25
2019-02-23T15:11:43.054Z,2.37
2019-02-23T15:14:49.200Z,1.95
2019-02-23T15:18:09.485Z,1.67
2019-02-23T15:21:25.711Z,2.45
2019-02-23T15:24:20.990Z,1.85
2019-02-23T15:27:20.518Z,2.17
2019-02-23T15:30:17.771Z,2.20
2019-02-23T15:33:43.159Z,2.62
2019-02-23T15:36:41.275Z,2.33
2019-02-23T15:39:58.227Z,1.95
2019-02-23T15:42:57.084Z,1.92
2019-02-23T15:45:53.305Z,1.55
2019-02-23T15:48:39.157Z,1.92
2019-02-23T15:51:09.004Z,1.20
2019-02-23T15:53:41.267Z,2.80
2019-02-23T15:56:10.986Z,1.80
2019-02-23T15:58:40.655Z,2.70
2019-02-23T16:01:10.298Z,2.25
2019-02-23T16:03:39.938Z,1.20
2019-02-23T16:06:12.495Z,2.83
2019-02-23T16:08:42.184Z,2.62
2019-02-23T16:11:11.878Z,2.17
2019-02-23T16:13:41.538Z,2.12
2019-02-23T16:16:11.168Z,1.77
2019-02-23T16:18:41.067Z,2.25
2019-02-23T16:21:10.691Z,1.27
2019-02-23T16:23:40.311Z,1.57
2019-02-23T16:26:10.379Z,2.15
2019-02-23T16:28:42.530Z,2.05
2019-02-23T16:31:12.140Z,2.10
2019-02-23T16:33:42.985Z,2.33
2019-02-23T16:36:12.664Z,1.47
2019-02-23T16:38:42.292Z,1.82
2019-02-23T16:41:14.772Z,1.95
2019-02-23T16:43:44.444Z,1.75
2019-02-23T16:46:14.058Z,1.72
2019-02-23T16:48:43.694Z,2.12
2019-02-23T16:51:14.947Z,1.37
2019-02-23T16:53:44.578Z,2.08
2019-02-23T16:56:14.200Z,2.10
2019-02-23T16:58:49.170Z,1.80
2019-02-23T17:01:22.766Z,1.85
2019-02-23T17:03:52.380Z,2.00
2019-02-23T17:06:22.006Z,1.65
2019-02-23T17:08:59.881Z,2.40
2019-02-23T17:11:32.234Z,2.02
2019-02-23T17:14:01.902Z,1.82
2019-02-23T17:16:31.553Z,1.95
2019-02-23T17:19:01.267Z,2.37
2019-02-23T17:21:33.539Z,2.27
2019-02-23T17:24:04.854Z,2.80
2019-02-23T17:26:36.752Z,2.08
2019-02-23T17:29:09.460Z,3.12
2019-02-23T17:31:39.086Z,2.83
2019-02-23T17:34:08.711Z,2.65
2019-02-23T17:36:40.454Z,3.58
2019-02-23T17:39:10.446Z,2.05
2019-02-23T17:41:40.228Z,2.52
2019-02-23T17:44:13.975Z,2.90
2019-02-23T17:46:43.568Z,2.72
2019-02-23T17:49:13.187Z,2.98
2019-02-23T17:51:42.806Z,2.47
2019-02-23T17:54:12.444Z,2.42
2019-02-23T17:56:43.035Z,4.00
2019-02-23T17:59:12.762Z,2.35
2019-02-23T18:01:46.818Z,3.10
2019-02-23T18:04:16.455Z,3.30
2019-02-23T18:06:46.061Z,2.98
2019-02-23T18:09:15.793Z,3.52
2019-02-23T18:11:46.690Z,2.92
2019-02-23T18:14:16.309Z,3.05
2019-02-23T18:16:45.973Z,3.50
2019-02-23T18:19:17.839Z,3.67
2019-02-23T18:21:47.494Z,2.12
2019-02-23T18:24:18.128Z,2.87
2019-02-23T18:26:50.199Z,5.22
2019-02-23T18:29:21.512Z,2.55
2019-02-23T18:31:51.172Z,4.75
2019-02-23T18:34:20.844Z,2.70
2019-02-23T18:36:53.518Z,4.00
2019-02-23T18:39:23.127Z,3.22
2019-02-23T18:42:11.818Z,3.60
2019-02-23T18:44:41.484Z,2.67
2019-02-23T18:47:11.211Z,2.70
2019-02-23T18:49:40.882Z,3.62
2019-02-23T18:52:11.516Z,2.60
2019-02-23T18:54:41.140Z,2.55
2019-02-23T18:57:10.751Z,4.08
2019-02-23T18:59:43.128Z,4.00
2019-02-23T19:02:14.358Z,2.05
2019-02-23T19:04:43.982Z,2.98
2019-02-23T19:07:13.586Z,2.50
2019-02-23T19:09:43.180Z,2.85
2019-02-23T19:12:12.885Z,2.60
2019-02-23T19:14:43.566Z,2.70
2019-02-23T19:17:16.252Z,3.17
2019-02-23T19:19:45.891Z,4.17
2019-02-23T19:22:15.542Z,2.85
2019-02-23T19:24:45.153Z,3.15
2019-02-23T19:27:14.783Z,4.95
2019-02-23T19:29:44.397Z,3.27
2019-02-23T19:32:14.008Z,4.47
2019-02-23T19:34:46.131Z,2.58
2019-02-23T19:37:17.597Z,3.70
2019-02-23T19:39:47.206Z,2.83
2019-02-23T19:42:16.850Z,3.58
2019-02-23T19:44:51.231Z,4.03
2019-02-23T19:47:25.567Z,3.20
2019-02-23T19:50:11.669Z,2.75
2019-02-23T19:52:42.266Z,3.95
2019-02-23T19:55:13.256Z,3.12
2019-02-23T19:57:42.911Z,3.77
2019-02-23T20:00:12.541Z,3.77
2019-02-23T20:02:42.312Z,3.00
2019-02-23T20:05:12.152Z,3.75
2019-02-23T20:07:41.852Z,3.75
2019-02-23T20:10:11.725Z,3.90
2019-02-23T20:12:41.483Z,3.83
2019-02-23T20:15:13.133Z,3.70
2019-02-23T20:17:42.866Z,3.42
2019-02-23T20:20:15.336Z,3.80
2019-02-23T20:22:50.118Z,4.00
2019-02-23T20:25:22.429Z,3.55
2019-02-23T20:27:52.089Z,3.42
2019-02-23T20:30:23.322Z,3.22
2019-02-23T20:32:52.965Z,3.17
2019-02-23T20:35:22.646Z,2.72
2019-02-23T20:37:52.326Z,3.75
2019-02-23T20:40:21.954Z,2.80
2019-02-23T20:42:51.581Z,4.20
2019-02-23T20:45:22.507Z,3.67
2019-02-23T20:47:52.199Z,2.77
2019-02-23T20:50:22.151Z,2.87
2019-02-23T20:52:54.433Z,3.22
2019-02-23T20:55:24.090Z,4.15
2019-02-23T20:57:53.790Z,3.25
2019-02-23T21:00:23.570Z,2.50
2019-02-23T21:02:54.570Z,2.75
2019-02-23T21:05:24.365Z,4.05
2019-02-23T21:07:53.981Z,4.10
2019-02-23T21:10:23.682Z,3.50
2019-02-23T21:12:56.974Z,4.22
2019-02-23T21:15:26.669Z,3.98
2019-02-23T21:17:56.357Z,3.65
2019-02-23T21:20:25.984Z,3.27
2019-02-23T21:22:55.643Z,3.50
2019-02-23T21:25:25.269Z,4.55
2019-02-23T21:27:54.906Z,4.50
2019-02-23T21:30:24.547Z,5.30
2019-02-23T21:32:54.170Z,5.05
2019-02-23T21:35:23.800Z,4.25
2019-02-23T21:37:53.833Z,4.62
2019-02-23T21:40:23.449Z,3.72
2019-02-23T21:42:53.056Z,3.77
2019-02-23T21:45:22.698Z,3.62
2019-02-23T21:47:54.758Z,3.42
2019-02-23T21:50:24.387Z,3.40
2019-02-23T21:52:53.992Z,4.78
2019-02-23T21:55:24.700Z,6.25
2019-02-23T21:57:58.388Z,4.87
2019-02-23T22:00:28.066Z,4.40
2019-02-23T22:02:57.894Z,4.62
2019-02-23T22:05:36.684Z,5.72
2019-02-23T22:08:06.315Z,4.55
2019-02-23T22:10:36.088Z,5.00
2019-02-23T22:13:05.773Z,3.72
2019-02-23T22:15:35.708Z,6.12
2019-02-23T22:18:07.809Z,4.12
2019-02-23T22:20:38.219Z,3.77
2019-02-23T22:23:08.436Z,5.70
2019-02-23T22:25:38.261Z,5.17
2019-02-23T22:28:08.411Z,5.20
2019-02-23T22:30:38.222Z,3.80
2019-02-23T22:33:08.251Z,4.22
2019-02-23T22:35:37.988Z,3.72
2019-02-23T22:38:07.773Z,4.15
2019-02-23T22:40:37.557Z,3.90
2019-02-23T22:43:07.246Z,6.17
2019-02-23T22:45:36.859Z,5.87
2019-02-23T22:48:06.482Z,5.28
2019-02-23T22:50:38.260Z,3.90
2019-02-23T22:53:07.594Z,5.10
2019-02-23T22:55:37.290Z,3.90
2019-02-23T22:58:08.191Z,4.03
2019-02-23T23:00:57.216Z,2.98
2019-02-23T23:03:28.589Z,5.40
2019-02-23T23:05:59.900Z,4.83
2019-02-23T23:08:29.526Z,3.90
2019-02-23T23:11:00.241Z,4.08
2019-02-23T23:13:29.931Z,6.08
2019-02-23T23:15:59.548Z,5.87
2019-02-23T23:18:29.177Z,4.35
2019-02-23T23:20:58.818Z,6.17
2019-02-23T23:23:28.450Z,3.37
2019-02-23T23:25:58.052Z,5.50
2019-02-23T23:28:27.659Z,4.40
2019-02-23T23:31:00.318Z,6.50
2019-02-23T23:33:32.036Z,6.30
2019-02-23T23:36:04.703Z,4.75
2019-02-23T23:38:34.321Z,4.17
2019-02-23T23:41:03.950Z,5.37
2019-02-23T23:43:34.631Z,5.10
2019-02-23T23:46:04.342Z,6.05
2019-02-23T23:48:33.949Z,5.55
2019-02-23T23:51:03.604Z,4.35
2019-02-23T23:53:33.212Z,5.28
2019-02-23T23:56:04.702Z,4.25
2019-02-23T23:58:35.537Z,5.83
